Time;durP1;ratioP1;P1;durP2;ratioP2;P2;SDS_P1;SDS_P2;PMS_P1;PMS_P2;Temp;Humidity;BMP_temperature;BMP_pressure;BME280_temperature;BME280_humidity;BME280_pressure;Samples;Min_cycle;Max_cycle;Signal;HPM_P1;HPM_P2
2021/07/13 00:00:40;;;;;;;9.98;9.32;;;20.80;99.90;;;;;;5036441;28;20629;-66
2021/07/13 00:03:07;;;;;;;9.57;8.80;;;20.80;99.90;;;;;;5053278;28;20183;-66
2021/07/13 00:05:35;;;;;;;10.07;9.23;;;20.80;99.90;;;;;;5051021;28;20182;-67
2021/07/13 00:08:00;;;;;;;10.13;9.40;;;20.80;99.90;;;;;;5033458;28;20259;-67
2021/07/13 00:10:30;;;;;;;9.73;8.80;;;20.70;99.90;;;;;;5033395;28;20250;-66
2021/07/13 00:15:31;;;;;;;10.25;9.57;;;20.40;99.90;;;;;;5050075;28;20696;-66
2021/07/13 00:17:58;;;;;;;9.55;8.75;;;20.20;99.90;;;;;;5033158;28;20634;-67
2021/07/13 00:20:25;;;;;;;10.93;10.02;;;20.10;99.90;;;;;;5032641;28;20672;-67
2021/07/13 00:22:50;;;;;;;10.10;9.40;;;20.00;99.90;;;;;;5057536;28;20194;-67
2021/07/13 00:25:17;;;;;;;10.07;9.17;;;19.80;99.90;;;;;;5073021;28;20178;-67
2021/07/13 00:27:44;;;;;;;9.37;8.67;;;19.70;99.90;;;;;;5072629;28;20170;-66
2021/07/13 00:30:12;;;;;;;10.30;9.50;;;19.60;99.90;;;;;;5071731;28;20238;-67
2021/07/13 00:32:38;;;;;;;10.20;9.17;;;19.50;99.90;;;;;;5072646;28;20233;-67
2021/07/13 00:35:04;;;;;;;10.80;9.88;;;19.40;99.90;;;;;;5072652;28;20239;-67
2021/07/13 00:37:30;;;;;;;10.63;9.80;;;19.40;99.90;;;;;;5072368;28;20541;-67
2021/07/13 00:39:56;;;;;;;9.27;8.60;;;19.40;99.90;;;;;;5072320;28;20201;-67
2021/07/13 00:42:21;;;;;;;10.30;9.52;;;19.30;99.90;;;;;;5072213;28;20174;-67
2021/07/13 00:44:47;;;;;;;10.37;9.37;;;19.30;99.90;;;;;;5072525;28;20166;-67
2021/07/13 00:47:17;;;;;;;10.07;9.35;;;19.20;99.90;;;;;;5072346;28;20624;-67
2021/07/13 00:49:44;;;;;;;11.43;10.47;;;19.30;99.90;;;;;;5072149;28;20180;-67
2021/07/13 00:52:10;;;;;;;10.40;9.43;;;19.10;99.90;;;;;;5072058;28;20698;-67
2021/07/13 00:54:37;;;;;;;11.10;10.10;;;19.00;99.90;;;;;;5071585;28;20190;-67
2021/07/13 00:57:07;;;;;;;10.40;9.63;;;18.90;99.90;;;;;;5071809;28;20184;-67
2021/07/13 00:59:34;;;;;;;10.97;9.87;;;18.70;99.90;;;;;;5071022;28;20606;-67
2021/07/13 01:02:00;;;;;;;11.17;10.07;;;18.60;99.90;;;;;;5071853;28;20166;-67
2021/07/13 01:04:26;;;;;;;9.93;9.20;;;18.50;99.90;;;;;;5072038;28;20190;-67
2021/07/13 01:07:01;;;;;;;12.43;10.10;;;18.50;99.90;;;;;;5071742;28;20177;-67
2021/07/13 01:09:44;;;;;;;11.10;9.53;;;18.50;99.90;;;;;;5071738;28;20174;-67
2021/07/13 01:12:24;;;;;;;11.17;10.07;;;18.40;99.90;;;;;;5071884;28;20174;-67
2021/07/13 01:14:56;;;;;;;11.03;10.23;;;18.30;99.90;;;;;;5071451;28;20624;-67
2021/07/13 01:17:37;;;;;;;11.60;10.50;;;18.20;99.90;;;;;;5071366;28;20177;-67
2021/07/13 01:20:26;;;;;;;11.50;10.43;;;18.10;99.90;;;;;;5071300;28;20664;-67
2021/07/13 01:23:02;;;;;;;11.63;10.53;;;18.00;99.90;;;;;;5071570;28;20205;-67
2021/07/13 01:25:41;;;;;;;11.00;10.20;;;18.00;99.90;;;;;;5071634;28;20259;-67
2021/07/13 01:28:12;;;;;;;11.40;10.40;;;17.90;99.90;;;;;;5069709;28;20170;-66
2021/07/13 01:30:42;;;;;;;11.27;10.37;;;17.80;99.90;;;;;;5071239;28;20190;-67
2021/07/13 01:33:23;;;;;;;10.73;9.83;;;17.90;99.90;;;;;;5071548;28;20201;-67
2021/07/13 01:36:00;;;;;;;11.00;10.00;;;17.90;99.90;;;;;;5071699;28;20265;-67
2021/07/13 01:38:27;;;;;;;10.33;9.60;;;17.90;99.90;;;;;;5071812;28;20169;-67
2021/07/13 01:41:00;;;;;;;10.10;9.30;;;17.80;99.90;;;;;;5071029;28;20193;-67
2021/07/13 01:43:28;;;;;;;9.30;8.60;;;17.70;99.90;;;;;;5071578;28;20196;-66
2021/07/13 01:45:54;;;;;;;9.97;9.07;;;17.60;99.90;;;;;;5071524;28;20540;-67
2021/07/13 01:48:21;;;;;;;8.87;8.17;;;17.60;99.90;;;;;;5071541;28;20166;-67
2021/07/13 01:50:50;;;;;;;9.83;8.93;;;17.60;99.90;;;;;;5070956;28;20177;-67
2021/07/13 01:53:17;;;;;;;8.60;8.00;;;17.50;99.90;;;;;;5071452;28;20181;-67
2021/07/13 01:55:45;;;;;;;9.60;8.80;;;17.40;99.90;;;;;;5071226;28;20173;-67
2021/07/13 01:58:12;;;;;;;9.53;8.73;;;17.40;99.90;;;;;;5071423;28;20573;-66
2021/07/13 02:00:41;;;;;;;10.17;9.47;;;17.40;99.90;;;;;;5070939;28;20566;-67
2021/07/13 02:03:08;;;;;;;10.33;9.53;;;17.40;99.90;;;;;;5071372;28;20230;-67
2021/07/13 02:05:35;;;;;;;11.03;10.07;;;17.50;99.90;;;;;;5071834;28;20575;-71
2021/07/13 02:08:03;;;;;;;10.33;9.33;;;17.60;99.90;;;;;;5076161;28;20174;-71
2021/07/13 02:10:30;;;;;;;10.30;9.37;;;17.50;99.90;;;;;;5075885;28;20178;-73
2021/07/13 02:12:55;;;;;;;10.57;9.67;;;17.50;99.90;;;;;;5076711;28;20678;-73
2021/07/13 02:15:21;;;;;;;12.70;11.47;;;17.40;99.90;;;;;;5076488;28;20214;-70
2021/07/13 02:17:50;;;;;;;10.60;9.60;;;17.40;99.90;;;;;;5076792;28;20178;-71
2021/07/13 02:20:17;;;;;;;10.63;9.77;;;17.50;99.90;;;;;;5076530;28;20568;-70
2021/07/13 02:22:43;;;;;;;11.03;10.13;;;17.50;99.90;;;;;;5077000;28;20182;-73
2021/07/13 02:25:12;;;;;;;10.70;9.67;;;17.40;99.90;;;;;;5076727;28;20167;-72
2021/07/13 02:28:01;;;;;;;11.53;10.53;;;17.40;99.90;;;;;;5076482;28;20174;-70
2021/07/13 02:30:28;;;;;;;11.70;10.70;;;17.40;99.90;;;;;;5074483;28;20190;-71
2021/07/13 02:33:02;;;;;;;12.63;11.53;;;17.40;99.90;;;;;;5075830;28;20227;-73
2021/07/13 02:35:39;;;;;;;12.37;11.17;;;17.40;99.90;;;;;;5076095;28;20247;-72
2021/07/13 02:38:08;;;;;;;13.67;12.33;;;17.40;99.90;;;;;;5076499;28;20178;-72
2021/07/13 02:40:34;;;;;;;15.03;13.53;;;17.50;99.90;;;;;;5075821;28;20198;-70
2021/07/13 02:43:00;;;;;;;14.37;12.93;;;17.50;99.90;;;;;;5076286;28;20543;-72
2021/07/13 02:45:27;;;;;;;13.43;12.20;;;17.50;99.90;;;;;;5075989;28;20181;-70
2021/07/13 02:47:55;;;;;;;14.57;13.17;;;17.40;99.90;;;;;;5074878;28;20178;-73
2021/07/13 02:50:22;;;;;;;15.17;13.40;;;17.40;99.90;;;;;;5075458;28;20583;-75
2021/07/13 02:52:49;;;;;;;14.43;13.03;;;17.40;99.90;;;;;;5076049;28;20194;-71
2021/07/13 02:55:21;;;;;;;14.10;12.63;;;17.40;99.90;;;;;;5075689;28;20201;-70
2021/07/13 02:57:47;;;;;;;13.90;12.50;;;17.40;99.90;;;;;;5076210;28;20181;-73
2021/07/13 03:00:15;;;;;;;15.53;13.90;;;17.40;99.90;;;;;;5075304;28;20190;-74
2021/07/13 03:02:44;;;;;;;16.63;15.00;;;17.40;99.90;;;;;;5076265;28;20229;-72
2021/07/13 03:05:18;;;;;;;17.20;15.50;;;17.50;99.90;;;;;;5075532;28;20219;-73
2021/07/13 03:07:46;;;;;;;16.67;14.80;;;17.50;99.90;;;;;;5075546;28;20586;-74
2021/07/13 03:10:12;;;;;;;15.07;13.70;;;17.60;99.90;;;;;;5075230;28;20170;-71
2021/07/13 03:12:38;;;;;;;19.47;15.17;;;17.60;99.90;;;;;;5073985;28;20222;-72
2021/07/13 03:15:06;;;;;;;16.07;14.53;;;17.70;99.90;;;;;;5075388;28;20182;-74
2021/07/13 03:17:32;;;;;;;16.93;13.97;;;17.70;99.90;;;;;;5074824;28;20175;-72
2021/07/13 03:19:58;;;;;;;16.40;14.83;;;17.80;99.90;;;;;;5074845;28;20209;-73
2021/07/13 03:22:26;;;;;;;15.53;13.90;;;17.80;99.90;;;;;;5075558;28;20162;-72
2021/07/13 03:24:53;;;;;;;16.97;15.37;;;17.80;99.90;;;;;;5074888;28;20249;-72
2021/07/13 03:27:21;;;;;;;19.47;15.57;;;17.80;99.90;;;;;;5075241;28;20196;-72
2021/07/13 03:29:52;;;;;;;15.20;13.70;;;17.80;99.90;;;;;;5074347;28;20549;-71
2021/07/13 03:32:20;;;;;;;18.23;15.47;;;17.90;99.90;;;;;;5075187;28;20174;-72
2021/07/13 03:34:47;;;;;;;16.30;14.60;;;17.70;99.90;;;;;;5075754;28;20166;-71
2021/07/13 03:37:13;;;;;;;15.50;13.90;;;17.70;99.90;;;;;;5075083;28;20190;-71
2021/07/13 03:39:39;;;;;;;16.77;13.87;;;17.50;99.90;;;;;;5074915;28;20202;-72
2021/07/13 03:42:05;;;;;;;15.40;13.93;;;17.50;99.90;;;;;;5074933;28;20185;-73
2021/07/13 03:44:31;;;;;;;15.80;14.27;;;17.50;99.90;;;;;;5074833;28;20186;-72
2021/07/13 03:46:57;;;;;;;17.50;15.53;;;17.70;99.90;;;;;;5074528;28;20170;-71
2021/07/13 03:49:25;;;;;;;19.20;15.13;;;17.70;99.90;;;;;;5074690;28;20205;-74
2021/07/13 03:51:51;;;;;;;19.17;17.17;;;17.80;99.90;;;;;;5072646;28;20174;-73
2021/07/13 03:54:18;;;;;;;18.83;17.03;;;17.80;99.90;;;;;;5074095;28;20231;-67
2021/07/13 03:56:45;;;;;;;18.57;15.10;;;17.80;99.90;;;;;;5073436;28;20185;-67
2021/07/13 03:59:11;;;;;;;19.30;17.10;;;17.70;99.90;;;;;;5073403;28;20594;-67
2021/07/13 04:01:37;;;;;;;19.20;17.20;;;17.60;99.90;;;;;;5072932;28;20170;-68
2021/07/13 04:04:03;;;;;;;20.10;17.03;;;17.60;99.90;;;;;;5073329;28;20190;-67
2021/07/13 04:06:29;;;;;;;20.63;18.33;;;17.40;99.90;;;;;;5073291;28;20182;-67
2021/07/13 04:08:55;;;;;;;19.53;17.40;;;17.40;99.90;;;;;;5073294;28;20657;-67
2021/07/13 04:11:21;;;;;;;20.83;17.17;;;17.40;99.90;;;;;;5072823;28;20202;-67
2021/07/13 04:13:46;;;;;;;24.00;17.67;;;17.40;99.90;;;;;;5072893;28;20209;-67
2021/07/13 04:16:12;;;;;;;23.87;18.47;;;17.50;99.90;;;;;;5073118;28;20173;-67
2021/07/13 04:18:38;;;;;;;25.10;22.30;;;17.50;99.90;;;;;;5073004;28;20654;-67
2021/07/13 04:21:04;;;;;;;24.27;20.47;;;17.50;99.90;;;;;;5072572;28;20202;-67
2021/07/13 04:23:30;;;;;;;21.60;18.07;;;17.60;99.90;;;;;;5072757;28;20205;-67
2021/07/13 04:25:56;;;;;;;25.23;19.43;;;17.50;99.90;;;;;;5072903;28;20166;-67
2021/07/13 04:28:21;;;;;;;26.17;19.80;;;17.50;99.90;;;;;;5071455;28;20198;-66
2021/07/13 04:30:49;;;;;;;25.33;21.23;;;17.50;99.90;;;;;;5071591;28;20178;-67
2021/07/13 04:33:14;;;;;;;38.17;21.93;;;17.60;99.90;;;;;;5072450;28;20252;-67
2021/07/13 04:35:40;;;;;;;33.70;22.30;;;17.70;99.90;;;;;;5072712;28;20575;-67
2021/07/13 04:38:06;;;;;;;30.87;20.60;;;17.80;99.90;;;;;;5072511;28;20178;-67
2021/07/13 04:40:32;;;;;;;28.30;20.00;;;17.90;99.90;;;;;;5072256;28;20255;-67
2021/07/13 04:42:57;;;;;;;30.83;22.63;;;17.90;99.90;;;;;;5072294;28;20190;-66
2021/07/13 04:45:23;;;;;;;27.97;20.47;;;17.90;99.90;;;;;;5072414;28;20261;-66
2021/07/13 04:47:49;;;;;;;31.90;22.40;;;17.80;99.90;;;;;;5071531;28;20178;-67
2021/07/13 04:50:14;;;;;;;36.07;23.50;;;17.90;99.90;;;;;;5072044;28;20174;-67
2021/07/13 04:52:40;;;;;;;35.97;23.33;;;17.80;99.90;;;;;;5072147;28;20557;-66
2021/07/13 04:55:06;;;;;;;30.83;23.17;;;17.70;99.90;;;;;;5072289;28;20248;-66
2021/07/13 04:57:32;;;;;;;32.17;22.37;;;17.70;99.90;;;;;;5072138;28;20178;-67
2021/07/13 04:59:58;;;;;;;33.00;22.77;;;17.70;99.90;;;;;;5071876;28;20195;-67
2021/07/13 05:02:23;;;;;;;33.43;23.60;;;17.60;99.90;;;;;;5071872;28;20178;-68
2021/07/13 05:04:49;;;;;;;38.20;24.60;;;17.60;99.90;;;;;;5070792;28;20514;-67
2021/07/13 05:07:14;;;;;;;35.77;23.27;;;17.60;99.90;;;;;;5071754;28;20179;-67
2021/07/13 05:09:40;;;;;;;43.20;27.33;;;17.60;99.90;;;;;;5070589;28;20209;-67
2021/07/13 05:12:06;;;;;;;57.57;27.40;;;17.60;99.90;;;;;;5072048;28;20261;-67
2021/07/13 05:14:32;;;;;;;50.40;33.33;;;17.60;99.90;;;;;;5071851;28;20294;-67
2021/07/13 05:16:58;;;;;;;38.17;24.60;;;17.60;99.90;;;;;;5072022;28;20184;-69
2021/07/13 05:19:24;;;;;;;44.13;26.83;;;17.60;99.90;;;;;;5071640;28;20209;-67
2021/07/13 05:21:56;;;;;;;42.27;28.53;;;17.60;99.90;;;;;;5071592;28;20201;-67
2021/07/13 05:24:23;;;;;;;40.97;26.53;;;17.70;99.90;;;;;;5071625;28;20220;-67
2021/07/13 05:26:49;;;;;;;35.40;25.17;;;17.70;99.90;;;;;;5071934;28;20170;-66
2021/07/13 05:29:15;;;;;;;35.93;27.23;;;17.80;99.90;;;;;;5070929;28;20188;-66
2021/07/13 05:31:41;;;;;;;44.97;25.23;;;17.90;99.90;;;;;;5071552;28;20253;-68
2021/07/13 05:34:07;;;;;;;34.80;24.50;;;17.90;99.90;;;;;;5071448;28;20193;-67
2021/07/13 05:36:32;;;;;;;37.20;23.53;;;17.90;99.90;;;;;;5071737;28;20645;-66
2021/07/13 05:39:00;;;;;;;36.27;25.50;;;18.00;99.90;;;;;;5071455;28;20185;-67
2021/07/13 05:41:26;;;;;;;43.23;26.13;;;18.10;99.90;;;;;;5071041;28;20555;-68
2021/07/13 05:43:53;;;;;;;37.70;24.63;;;18.20;99.90;;;;;;5071586;28;20197;-68
2021/07/13 05:46:19;;;;;;;40.93;25.37;;;18.30;99.90;;;;;;5071451;28;20656;-67
2021/07/13 05:48:45;;;;;;;36.30;23.57;;;18.40;99.90;;;;;;5071685;28;20166;-68
2021/07/13 05:51:11;;;;;;;33.67;22.03;;;18.40;99.90;;;;;;5071361;28;20182;-67
2021/07/13 05:53:36;;;;;;;38.13;23.33;;;18.40;99.90;;;;;;5071617;28;20229;-68
2021/07/13 05:56:02;;;;;;;35.97;24.83;;;18.30;99.90;;;;;;5071332;28;20170;-67
2021/07/13 05:58:28;;;;;;;36.60;23.37;;;18.30;99.90;;;;;;5071589;28;20170;-68
2021/07/13 06:00:54;;;;;;;36.83;23.37;;;18.30;99.90;;;;;;5071262;28;20652;-68
2021/07/13 06:03:21;;;;;;;34.07;21.93;;;18.30;99.90;;;;;;5071280;28;20222;-68
2021/07/13 06:05:46;;;;;;;30.77;21.60;;;18.30;99.90;;;;;;5071422;28;20718;-67
2021/07/13 06:08:12;;;;;;;33.13;23.00;;;18.20;99.90;;;;;;5071190;28;20201;-67
2021/07/13 06:10:38;;;;;;;33.33;21.97;;;18.20;99.90;;;;;;5071080;28;20281;-67
2021/07/13 06:13:04;;;;;;;35.50;22.10;;;18.10;99.90;;;;;;5070872;28;20728;-67
2021/07/13 06:17:57;;;;;;;29.23;21.37;;;18.00;99.90;;;;;;5048098;28;20210;-67
2021/07/13 06:20:23;;;;;;;31.40;22.03;;;18.00;99.90;;;;;;5058756;28;20201;-67
2021/07/13 06:22:48;;;;;;;36.17;23.03;;;18.00;99.90;;;;;;5057509;28;20225;-68
2021/07/13 06:25:15;;;;;;;43.27;24.60;;;17.90;99.90;;;;;;5066524;28;20265;-67
2021/07/13 06:27:41;;;;;;;37.50;23.90;;;17.90;99.90;;;;;;5071110;28;20183;-67
2021/07/13 06:30:08;;;;;;;35.43;22.40;;;17.90;99.90;;;;;;5070583;28;20186;-68
2021/07/13 06:32:34;;;;;;;32.30;22.50;;;17.90;99.90;;;;;;5069381;28;20178;-67
2021/07/13 06:35:00;;;;;;;35.30;23.10;;;17.80;99.90;;;;;;5071005;28;20675;-67
2021/07/13 06:37:26;;;;;;;35.07;22.90;;;17.90;99.90;;;;;;5070767;28;20209;-67
2021/07/13 06:39:51;;;;;;;33.63;22.50;;;17.80;99.90;;;;;;5070765;28;20280;-67
2021/07/13 06:42:17;;;;;;;34.73;22.27;;;17.80;99.90;;;;;;5070722;28;20328;-67
2021/07/13 06:44:43;;;;;;;33.93;21.13;;;17.80;99.90;;;;;;5071159;28;20191;-67
2021/07/13 06:47:08;;;;;;;30.33;23.80;;;17.80;99.90;;;;;;5070611;28;20197;-67
2021/07/13 06:49:34;;;;;;;31.97;21.07;;;17.80;99.90;;;;;;5070952;28;20169;-67
2021/07/13 06:52:00;;;;;;;28.50;20.50;;;17.80;99.90;;;;;;5070469;28;20547;-67
2021/07/13 06:54:25;;;;;;;34.30;21.20;;;17.80;99.90;;;;;;5074206;28;20552;-67
2021/07/13 06:56:51;;;;;;;32.10;23.73;;;17.80;99.90;;;;;;5074713;28;20173;-67
2021/07/13 06:59:16;;;;;;;34.57;22.77;;;17.80;99.90;;;;;;5073285;28;20204;-67
2021/07/13 07:01:42;;;;;;;33.83;21.73;;;17.80;99.90;;;;;;5074228;28;20194;-66
2021/07/13 07:04:08;;;;;;;33.17;22.37;;;18.00;99.90;;;;;;5072736;28;20281;-66
2021/07/13 07:06:33;;;;;;;37.43;23.17;;;18.00;99.90;;;;;;5074402;28;20162;-67
2021/07/13 07:08:59;;;;;;;36.07;24.00;;;18.10;99.90;;;;;;5074144;28;20210;-67
2021/07/13 07:11:24;;;;;;;34.80;22.17;;;18.30;99.90;;;;;;5074211;28;20206;-67
2021/07/13 07:13:50;;;;;;;37.43;24.00;;;18.40;99.90;;;;;;5073986;28;20202;-66
2021/07/13 07:16:16;;;;;;;42.90;24.27;;;18.40;99.90;;;;;;5073581;28;20276;-67
2021/07/13 07:18:41;;;;;;;36.50;23.57;;;18.50;99.90;;;;;;5073625;28;20190;-68
2021/07/13 07:21:07;;;;;;;37.40;22.87;;;18.50;99.90;;;;;;5073558;28;20201;-68
2021/07/13 07:23:33;;;;;;;34.37;23.70;;;18.50;99.90;;;;;;5073911;28;20256;-67
2021/07/13 07:25:59;;;;;;;35.23;24.07;;;18.60;99.90;;;;;;5073497;28;20162;-67
2021/07/13 07:28:25;;;;;;;33.77;22.47;;;18.70;99.90;;;;;;5073698;28;20174;-67
2021/07/13 07:30:51;;;;;;;35.93;20.57;;;18.60;99.90;;;;;;5073705;28;20163;-68
2021/07/13 07:33:16;;;;;;;34.00;22.13;;;18.60;99.90;;;;;;5073553;28;20307;-67
2021/07/13 07:35:43;;;;;;;26.47;18.80;;;18.60;99.90;;;;;;5073578;28;20665;-68
2021/07/13 07:38:10;;;;;;;25.77;20.10;;;18.60;99.90;;;;;;5073473;28;20213;-68
2021/07/13 07:40:36;;;;;;;25.20;18.73;;;18.50;99.90;;;;;;5073721;28;20194;-67
2021/07/13 07:43:02;;;;;;;26.93;20.23;;;18.40;99.90;;;;;;5073307;28;20327;-67
2021/07/13 07:45:28;;;;;;;28.50;18.57;;;18.50;99.90;;;;;;5072775;28;20198;-67
2021/07/13 07:47:53;;;;;;;22.87;17.63;;;18.60;99.90;;;;;;5073413;28;20637;-67
2021/07/13 07:50:20;;;;;;;23.53;18.00;;;18.60;99.90;;;;;;5072913;28;20182;-67
2021/07/13 07:52:46;;;;;;;26.97;19.13;;;18.60;99.90;;;;;;5073626;28;20174;-67
2021/07/13 07:55:12;;;;;;;24.03;17.60;;;18.40;99.90;;;;;;5072980;28;20202;-67
2021/07/13 07:57:39;;;;;;;22.00;17.60;;;18.40;99.90;;;;;;5072264;28;20180;-67
2021/07/13 08:00:11;;;;;;;27.73;16.43;;;18.40;99.90;;;;;;5072775;28;20202;-67
2021/07/13 08:02:36;;;;;;;25.77;18.10;;;18.30;99.90;;;;;;5073486;28;20166;-67
2021/07/13 08:05:03;;;;;;;22.73;16.80;;;18.30;99.90;;;;;;5072880;28;20217;-67
2021/07/13 08:07:29;;;;;;;19.83;14.53;;;18.30;99.90;;;;;;5073425;28;20607;-67
2021/07/13 08:09:54;;;;;;;19.20;15.50;;;18.20;99.90;;;;;;5072695;28;20174;-67
2021/07/13 08:12:20;;;;;;;20.37;15.90;;;18.30;99.90;;;;;;5073117;28;20189;-67
2021/07/13 08:14:46;;;;;;;25.30;16.37;;;18.30;99.90;;;;;;5072929;28;20267;-67
2021/07/13 08:17:11;;;;;;;24.03;17.03;;;18.30;99.90;;;;;;5072764;28;20664;-67
2021/07/13 08:19:40;;;;;;;21.47;16.60;;;18.30;99.90;;;;;;5072489;28;20198;-67
2021/07/13 08:22:07;;;;;;;20.20;16.07;;;18.30;99.90;;;;;;5071605;28;20178;-67
2021/07/13 08:24:34;;;;;;;24.07;16.63;;;18.20;99.90;;;;;;5072730;28;20246;-67
2021/07/13 08:26:59;;;;;;;20.10;17.77;;;18.20;99.90;;;;;;5072150;28;20173;-67
2021/07/13 08:29:25;;;;;;;24.13;18.40;;;18.20;99.90;;;;;;5072439;28;20656;-68
2021/07/13 08:31:56;;;;;;;23.80;17.23;;;18.20;99.90;;;;;;5072428;28;20171;-67
2021/07/13 08:34:22;;;;;;;20.70;18.47;;;18.20;99.90;;;;;;5072546;28;20191;-67
2021/07/13 08:36:48;;;;;;;22.47;18.57;;;18.10;99.90;;;;;;5072767;28;20216;-67
2021/07/13 08:39:13;;;;;;;25.47;19.17;;;18.10;99.90;;;;;;5072369;28;20174;-67
2021/07/13 08:41:39;;;;;;;24.63;20.00;;;18.10;99.90;;;;;;5072123;28;20284;-66
2021/07/13 08:44:06;;;;;;;24.63;19.50;;;18.30;99.90;;;;;;5072340;28;20194;-67
2021/07/13 08:46:32;;;;;;;25.00;19.73;;;18.40;99.90;;;;;;5070955;28;20641;-67
2021/07/13 08:49:02;;;;;;;22.47;19.87;;;18.50;99.90;;;;;;5072643;28;20170;-67
2021/07/13 08:51:28;;;;;;;25.53;19.53;;;18.50;99.90;;;;;;5071875;28;20189;-67
2021/07/13 08:53:54;;;;;;;28.43;21.07;;;18.50;99.90;;;;;;5072233;28;20186;-67
2021/07/13 08:56:19;;;;;;;24.67;22.07;;;18.60;99.90;;;;;;5072123;28;20227;-67
2021/07/13 08:58:45;;;;;;;29.93;22.23;;;18.60;99.90;;;;;;5072307;28;20166;-67
2021/07/13 09:01:11;;;;;;;29.20;22.70;;;18.60;99.90;;;;;;5071556;28;20205;-67
2021/07/13 09:03:55;;;;;;;26.60;21.47;;;18.70;99.90;;;;;;5072156;28;20171;-67
2021/07/13 09:06:22;;;;;;;26.33;21.43;;;18.80;99.90;;;;;;5071947;28;20633;-67
2021/07/13 09:08:48;;;;;;;24.70;20.30;;;18.80;99.90;;;;;;5072205;28;20173;-67
2021/07/13 09:11:17;;;;;;;27.83;21.17;;;18.80;99.90;;;;;;5071599;28;20178;-67
2021/07/13 09:13:49;;;;;;;31.27;23.63;;;18.90;99.90;;;;;;5072205;28;20218;-67
2021/07/13 09:16:20;;;;;;;30.20;21.63;;;19.10;99.90;;;;;;5070871;28;20190;-67
2021/07/13 09:18:51;;;;;;;33.00;22.20;;;19.10;99.90;;;;;;5072113;28;20201;-66
2021/07/13 09:21:21;;;;;;;30.20;23.47;;;19.20;99.90;;;;;;5071218;28;20746;-67
2021/07/13 09:24:08;;;;;;;33.47;24.90;;;19.40;99.90;;;;;;5071866;28;20221;-66
2021/07/13 09:26:41;;;;;;;34.80;25.90;;;19.50;99.90;;;;;;5071438;28;20182;-67
2021/07/13 09:29:09;;;;;;;30.67;24.47;;;19.50;99.90;;;;;;5071747;28;20186;-67
2021/07/13 09:31:35;;;;;;;30.30;24.47;;;19.60;99.90;;;;;;5071140;28;20182;-67
2021/07/13 09:34:01;;;;;;;49.27;44.57;;;19.80;99.90;;;;;;5071624;28;20224;-67
2021/07/13 09:36:26;;;;;;;37.80;33.67;;;19.90;99.90;;;;;;5071339;28;20217;-67
2021/07/13 09:38:54;;;;;;;35.07;24.83;;;20.10;99.90;;;;;;5070418;28;20173;-66
2021/07/13 09:41:25;;;;;;;34.13;26.27;;;20.10;99.90;;;;;;5070871;28;20248;-66
2021/07/13 09:44:03;;;;;;;33.67;25.87;;;20.20;99.90;;;;;;5071697;28;20197;-67
2021/07/13 09:46:46;;;;;;;29.60;22.93;;;20.30;99.90;;;;;;5071220;28;20174;-67
2021/07/13 09:49:20;;;;;;;33.37;29.97;;;20.40;99.90;;;;;;5071493;28;20300;-67
2021/07/13 09:51:53;;;;;;;27.20;22.70;;;20.50;99.90;;;;;;5070325;28;20178;-68
2021/07/13 09:54:40;;;;;;;26.77;22.52;;;20.70;99.90;;;;;;5071445;28;20186;-67
2021/07/13 09:57:14;;;;;;;27.08;22.73;;;20.70;99.90;;;;;;5051339;28;20182;-67
2021/07/13 09:59:40;;;;;;;26.80;22.45;;;21.00;99.90;;;;;;5051812;28;20174;-67
2021/07/13 10:02:09;;;;;;;26.65;22.70;;;21.60;99.90;;;;;;5071209;28;20174;-67
2021/07/13 10:04:39;;;;;;;23.95;21.50;;;22.00;99.90;;;;;;5071239;28;20278;-68
2021/07/13 10:07:12;;;;;;;22.80;20.45;;;22.10;99.90;;;;;;5071026;28;20249;-67
2021/07/13 10:09:51;;;;;;;21.65;19.35;;;22.30;99.90;;;;;;5070857;28;20520;-67
2021/07/13 10:12:22;;;;;;;22.08;19.67;;;22.60;99.90;;;;;;5063109;28;20192;-68
2021/07/13 10:14:49;;;;;;;23.42;20.90;;;22.60;99.90;;;;;;5071054;28;20745;-67
2021/07/13 10:17:16;;;;;;;25.52;21.77;;;22.80;99.90;;;;;;5070724;28;20209;-67
2021/07/13 10:20:00;;;;;;;25.40;22.02;;;23.30;99.90;;;;;;5070944;28;20749;-67
2021/07/13 10:22:27;;;;;;;25.13;21.50;;;23.40;99.90;;;;;;5071047;28;20189;-67
2021/07/13 10:24:57;;;;;;;28.05;23.27;;;23.40;99.90;;;;;;5071189;28;20197;-67
2021/07/13 10:27:28;;;;;;;26.92;21.92;;;23.40;99.90;;;;;;5072377;28;20590;-68
2021/07/13 10:29:55;;;;;;;26.00;23.30;;;23.50;99.90;;;;;;5074786;28;20173;-67
2021/07/13 10:32:24;;;;;;;24.20;21.23;;;23.70;99.90;;;;;;5075041;28;20672;-67
2021/07/13 10:35:00;;;;;;;25.92;22.90;;;23.80;99.90;;;;;;5073804;28;20194;-67
2021/07/13 10:37:35;;;;;;;23.00;19.63;;;23.80;99.90;;;;;;5074766;28;20178;-67
2021/07/13 10:40:10;;;;;;;24.73;22.23;;;23.70;99.90;;;;;;5074118;28;20276;-67
2021/07/13 10:42:42;;;;;;;24.92;22.00;;;23.80;99.90;;;;;;5074964;28;20173;-67
2021/07/13 10:45:17;;;;;;;26.70;23.83;;;24.10;99.90;;;;;;5074516;28;20198;-67
2021/07/13 10:48:14;;;;;;;22.58;20.27;;;24.20;99.90;;;;;;5074603;28;20169;-67
2021/07/13 10:50:53;;;;;;;25.02;22.63;;;24.40;99.90;;;;;;5073812;28;20235;-67
2021/07/13 10:53:29;;;;;;;25.75;23.05;;;24.10;99.90;;;;;;5084832;28;20213;-67
2021/07/13 10:55:55;;;;;;;22.80;20.38;;;24.30;99.90;;;;;;5054688;28;20232;-67
2021/07/13 10:58:23;;;;;;;23.85;20.58;;;24.20;99.90;;;;;;5068347;28;20174;-67
2021/07/13 11:03:32;;;;;;;24.08;21.58;;;23.80;99.90;;;;;;5074246;28;20178;-67
2021/07/13 11:06:02;;;;;;;24.40;21.83;;;23.60;99.90;;;;;;5074114;28;20174;-67
2021/07/13 11:08:52;;;;;;;26.35;23.08;;;23.60;99.90;;;;;;5074501;28;20285;-67
2021/07/13 11:11:27;;;;;;;24.60;22.00;;;23.80;99.90;;;;;;5073780;28;20178;-67
2021/07/13 11:13:53;;;;;;;26.58;23.77;;;23.80;99.90;;;;;;5074323;28;20289;-67
2021/07/13 11:16:27;;;;;;;26.08;23.38;;;23.80;99.90;;;;;;5073979;28;20194;-67
2021/07/13 11:18:54;;;;;;;25.67;23.02;;;24.00;99.90;;;;;;5074378;28;20516;-67
2021/07/13 11:21:21;;;;;;;27.20;24.38;;;24.30;99.90;;;;;;5073541;28;20716;-67
2021/07/13 11:23:50;;;;;;;27.45;24.52;;;24.30;99.90;;;;;;5074256;28;20190;-67
2021/07/13 11:26:16;;;;;;;26.15;23.38;;;24.30;99.90;;;;;;5071884;28;20170;-67
2021/07/13 11:28:52;;;;;;;27.23;24.40;;;24.60;99.90;;;;;;5074151;28;20166;-67
2021/07/13 11:31:25;;;;;;;28.75;24.00;;;24.70;99.90;;;;;;5073422;28;20177;-67
2021/07/13 11:33:56;;;;;;;29.92;26.75;;;24.40;99.90;;;;;;5073975;28;20202;-68
2021/07/13 11:36:31;;;;;;;27.83;24.90;;;24.50;99.90;;;;;;5072346;28;20182;-68
2021/07/13 11:39:01;;;;;;;29.95;26.98;;;24.50;99.90;;;;;;5073284;28;20200;-67
2021/07/13 11:41:28;;;;;;;26.45;23.60;;;24.60;99.90;;;;;;5073018;28;20206;-67
2021/07/13 11:43:56;;;;;;;28.92;24.42;;;24.70;99.90;;;;;;5073518;28;20194;-68
2021/07/13 11:46:28;;;;;;;28.25;25.20;;;25.00;99.90;;;;;;5073375;28;20175;-67
2021/07/13 11:49:01;;;;;;;28.95;25.02;;;25.30;99.90;;;;;;5073756;28;20219;-67
2021/07/13 11:51:27;;;;;;;27.23;24.20;;;25.40;99.90;;;;;;5073065;28;20261;-67
2021/07/13 11:54:00;;;;;;;27.05;24.15;;;25.10;99.90;;;;;;5073532;28;20194;-67
2021/07/13 11:56:27;;;;;;;28.95;26.02;;;24.90;99.90;;;;;;5073290;28;20248;-68
2021/07/13 11:58:53;;;;;;;28.45;25.42;;;24.90;99.90;;;;;;5084625;28;20271;-67
2021/07/13 12:01:21;;;;;;;29.05;25.88;;;25.00;99.90;;;;;;5078256;28;20240;-68
2021/07/13 12:03:48;;;;;;;27.83;24.83;;;25.30;99.90;;;;;;5073309;28;20265;-67
2021/07/13 12:06:19;;;;;;;26.05;23.27;;;25.50;99.90;;;;;;5072737;28;20208;-67
2021/07/13 12:08:55;;;;;;;25.80;23.23;;;25.80;99.90;;;;;;5073353;28;20171;-67
2021/07/13 12:11:32;;;;;;;28.08;25.20;;;25.90;99.90;;;;;;5072609;28;20717;-68
2021/07/13 12:13:59;;;;;;;29.27;26.27;;;25.90;99.90;;;;;;5073215;28;20644;-67
2021/07/13 12:16:31;;;;;;;26.20;23.60;;;25.60;99.90;;;;;;5073116;28;20194;-67
2021/07/13 12:19:00;;;;;;;27.42;24.33;;;25.60;99.90;;;;;;5073307;28;20249;-67
2021/07/13 12:21:26;;;;;;;26.65;23.83;;;25.40;99.90;;;;;;5072258;28;20613;-67
2021/07/13 12:23:54;;;;;;;27.20;24.25;;;25.20;99.90;;;;;;5072887;28;20189;-67
2021/07/13 12:26:24;;;;;;;29.02;25.98;;;25.00;99.90;;;;;;5071747;28;20213;-67
2021/07/13 12:29:14;;;;;;;28.52;24.33;;;24.80;99.90;;;;;;5072981;28;20213;-67
2021/07/13 12:31:48;;;;;;;26.55;23.55;;;24.80;99.90;;;;;;5072222;28;20174;-67
2021/07/13 12:34:24;;;;;;;26.73;23.83;;;25.00;99.90;;;;;;5072465;28;20658;-67
2021/07/13 12:37:02;;;;;;;26.42;23.75;;;25.10;99.90;;;;;;5071757;28;20174;-67
2021/07/13 12:39:28;;;;;;;26.13;23.42;;;25.40;99.90;;;;;;5072378;28;20174;-67
2021/07/13 12:41:59;;;;;;;26.38;23.67;;;25.50;99.90;;;;;;5071994;28;20712;-67